sensor_id;sensor_type;location;lat;lon;timestamp;P1;durP1;ratioP1;P2;durP2;ratioP2
54929;SDS011;40833;53.238;6.576;2024-01-15T00:00:18;16.87;;;1.30;;
54929;SDS011;40833;53.238;6.576;2024-01-15T00:02:44;12.43;;;1.20;;
54929;SDS011;40833;53.238;6.576;2024-01-15T00:05:10;9.27;;;1.20;;
54929;SDS011;40833;53.238;6.576;2024-01-15T00:07:36;15.97;;;0.70;;
54929;SDS011;40833;53.238;6.576;2024-01-15T00:10:02;11.57;;;0.77;;
54929;SDS011;40833;53.238;6.576;2024-01-15T00:12:28;8.87;;;0.60;;
54929;SDS011;40833;53.238;6.576;2024-01-15T00:14:53;12.90;;;0.70;;
54929;SDS011;40833;53.238;6.576;2024-01-15T00:17:19;10.63;;;0.77;;
54929;SDS011;40833;53.238;6.576;2024-01-15T00:19:45;11.97;;;0.57;;
54929;SDS011;40833;53.238;6.576;2024-01-15T00:22:10;9.30;;;0.63;;
54929;SDS011;40833;53.238;6.576;2024-01-15T00:24:36;3.57;;;0.23;;
54929;SDS011;40833;53.238;6.576;2024-01-15T00:27:02;2.77;;;0.10;;
54929;SDS011;40833;53.238;6.576;2024-01-15T00:29:27;3.53;;;0.10;;
54929;SDS011;40833;53.238;6.576;2024-01-15T00:31:53;4.80;;;0.30;;
54929;SDS011;40833;53.238;6.576;2024-01-15T00:34:19;10.10;;;0.73;;
54929;SDS011;40833;53.238;6.576;2024-01-15T00:36:45;10.93;;;0.53;;
54929;SDS011;40833;53.238;6.576;2024-01-15T00:39:10;11.43;;;0.50;;
54929;SDS011;40833;53.238;6.576;2024-01-15T00:41:36;7.73;;;0.63;;
54929;SDS011;40833;53.238;6.576;2024-01-15T00:44:03;10.80;;;1.17;;
54929;SDS011;40833;53.238;6.576;2024-01-15T00:46:29;11.17;;;0.87;;
54929;SDS011;40833;53.238;6.576;2024-01-15T00:48:54;8.77;;;0.63;;
54929;SDS011;40833;53.238;6.576;2024-01-15T00:51:20;17.80;;;1.53;;
54929;SDS011;40833;53.238;6.576;2024-01-15T00:53:46;17.67;;;1.77;;
54929;SDS011;40833;53.238;6.576;2024-01-15T00:56:11;16.67;;;0.77;;
54929;SDS011;40833;53.238;6.576;2024-01-15T00:58:37;14.17;;;0.93;;
54929;SDS011;40833;53.238;6.576;2024-01-15T01:01:03;16.27;;;1.07;;
54929;SDS011;40833;53.238;6.576;2024-01-15T01:03:28;11.70;;;1.20;;
54929;SDS011;40833;53.238;6.576;2024-01-15T01:05:54;15.37;;;1.63;;
54929;SDS011;40833;53.238;6.576;2024-01-15T01:08:20;22.70;;;2.10;;
54929;SDS011;40833;53.238;6.576;2024-01-15T01:10:46;33.30;;;2.80;;
54929;SDS011;40833;53.238;6.576;2024-01-15T01:13:12;18.13;;;1.60;;
54929;SDS011;40833;53.238;6.576;2024-01-15T01:15:38;23.97;;;2.47;;
54929;SDS011;40833;53.238;6.576;2024-01-15T01:18:04;19.53;;;1.97;;
54929;SDS011;40833;53.238;6.576;2024-01-15T01:20:30;24.33;;;1.87;;
54929;SDS011;40833;53.238;6.576;2024-01-15T01:22:55;24.83;;;1.97;;
54929;SDS011;40833;53.238;6.576;2024-01-15T01:25:21;23.50;;;2.03;;
54929;SDS011;40833;53.238;6.576;2024-01-15T01:27:47;22.33;;;1.90;;
54929;SDS011;40833;53.238;6.576;2024-01-15T01:30:12;28.37;;;3.10;;
54929;SDS011;40833;53.238;6.576;2024-01-15T01:32:38;26.93;;;2.07;;
54929;SDS011;40833;53.238;6.576;2024-01-15T01:35:04;24.67;;;3.23;;
54929;SDS011;40833;53.238;6.576;2024-01-15T01:37:30;24.20;;;2.57;;
54929;SDS011;40833;53.238;6.576;2024-01-15T01:39:55;16.90;;;2.33;;
54929;SDS011;40833;53.238;6.576;2024-01-15T01:42:21;15.17;;;1.77;;
54929;SDS011;40833;53.238;6.576;2024-01-15T01:44:46;19.57;;;1.47;;
54929;SDS011;40833;53.238;6.576;2024-01-15T01:47:12;14.63;;;1.97;;
54929;SDS011;40833;53.238;6.576;2024-01-15T01:49:39;19.50;;;1.97;;
54929;SDS011;40833;53.238;6.576;2024-01-15T01:52:06;21.90;;;1.70;;
54929;SDS011;40833;53.238;6.576;2024-01-15T01:54:32;23.63;;;1.47;;
54929;SDS011;40833;53.238;6.576;2024-01-15T01:56:58;24.03;;;1.53;;
54929;SDS011;40833;53.238;6.576;2024-01-15T01:59:27;17.90;;;1.67;;
54929;SDS011;40833;53.238;6.576;2024-01-15T02:01:56;24.53;;;1.73;;
54929;SDS011;40833;53.238;6.576;2024-01-15T02:04:23;13.07;;;1.60;;
54929;SDS011;40833;53.238;6.576;2024-01-15T02:06:49;15.87;;;1.57;;
54929;SDS011;40833;53.238;6.576;2024-01-15T02:09:16;17.33;;;1.60;;
54929;SDS011;40833;53.238;6.576;2024-01-15T02:11:43;14.87;;;1.30;;
54929;SDS011;40833;53.238;6.576;2024-01-15T02:14:09;21.43;;;1.57;;
54929;SDS011;40833;53.238;6.576;2024-01-15T02:16:35;19.73;;;1.40;;
54929;SDS011;40833;53.238;6.576;2024-01-15T02:19:01;16.70;;;1.50;;
54929;SDS011;40833;53.238;6.576;2024-01-15T02:21:26;21.83;;;2.17;;
54929;SDS011;40833;53.238;6.576;2024-01-15T02:23:54;27.90;;;2.23;;
54929;SDS011;40833;53.238;6.576;2024-01-15T02:26:20;18.87;;;1.80;;
54929;SDS011;40833;53.238;6.576;2024-01-15T02:28:46;21.73;;;1.80;;
54929;SDS011;40833;53.238;6.576;2024-01-15T02:31:13;23.10;;;2.00;;
54929;SDS011;40833;53.238;6.576;2024-01-15T02:33:38;21.73;;;2.17;;
54929;SDS011;40833;53.238;6.576;2024-01-15T02:36:04;18.87;;;1.80;;
54929;SDS011;40833;53.238;6.576;2024-01-15T02:38:30;13.20;;;1.03;;
54929;SDS011;40833;53.238;6.576;2024-01-15T02:40:56;5.23;;;0.53;;
54929;SDS011;40833;53.238;6.576;2024-01-15T02:43:22;4.60;;;0.30;;
54929;SDS011;40833;53.238;6.576;2024-01-15T02:45:47;7.90;;;0.80;;
54929;SDS011;40833;53.238;6.576;2024-01-15T02:48:13;9.07;;;0.53;;
54929;SDS011;40833;53.238;6.576;2024-01-15T02:50:39;12.93;;;0.67;;
54929;SDS011;40833;53.238;6.576;2024-01-15T02:53:04;7.60;;;0.53;;
54929;SDS011;40833;53.238;6.576;2024-01-15T02:55:30;8.83;;;0.70;;
54929;SDS011;40833;53.238;6.576;2024-01-15T02:57:56;8.73;;;1.07;;
54929;SDS011;40833;53.238;6.576;2024-01-15T03:00:22;6.50;;;0.60;;
54929;SDS011;40833;53.238;6.576;2024-01-15T03:02:47;9.50;;;0.70;;
54929;SDS011;40833;53.238;6.576;2024-01-15T03:05:15;7.03;;;0.37;;
54929;SDS011;40833;53.238;6.576;2024-01-15T03:07:41;4.23;;;0.50;;
54929;SDS011;40833;53.238;6.576;2024-01-15T03:10:07;4.70;;;0.43;;
54929;SDS011;40833;53.238;6.576;2024-01-15T03:12:33;16.73;;;1.27;;
54929;SDS011;40833;53.238;6.576;2024-01-15T03:14:59;8.83;;;0.87;;
54929;SDS011;40833;53.238;6.576;2024-01-15T03:17:24;20.93;;;1.40;;
54929;SDS011;40833;53.238;6.576;2024-01-15T03:19:50;18.10;;;1.23;;
54929;SDS011;40833;53.238;6.576;2024-01-15T03:22:16;24.47;;;1.30;;
54929;SDS011;40833;53.238;6.576;2024-01-15T03:24:43;13.77;;;1.43;;
54929;SDS011;40833;53.238;6.576;2024-01-15T03:27:08;12.70;;;1.23;;
54929;SDS011;40833;53.238;6.576;2024-01-15T03:29:34;23.50;;;1.80;;
54929;SDS011;40833;53.238;6.576;2024-01-15T03:32:00;21.17;;;2.77;;
54929;SDS011;40833;53.238;6.576;2024-01-15T03:34:25;21.27;;;1.87;;
54929;SDS011;40833;53.238;6.576;2024-01-15T03:36:51;25.93;;;2.27;;
54929;SDS011;40833;53.238;6.576;2024-01-15T03:39:17;16.33;;;2.37;;
54929;SDS011;40833;53.238;6.576;2024-01-15T03:41:43;23.80;;;1.90;;
54929;SDS011;40833;53.238;6.576;2024-01-15T03:44:08;24.67;;;1.83;;
54929;SDS011;40833;53.238;6.576;2024-01-15T03:46:34;17.43;;;1.63;;
54929;SDS011;40833;53.238;6.576;2024-01-15T03:49:00;31.17;;;2.60;;
54929;SDS011;40833;53.238;6.576;2024-01-15T03:51:25;18.23;;;2.07;;
54929;SDS011;40833;53.238;6.576;2024-01-15T03:53:51;28.37;;;2.03;;
54929;SDS011;40833;53.238;6.576;2024-01-15T03:56:17;20.17;;;2.10;;
54929;SDS011;40833;53.238;6.576;2024-01-15T03:58:42;18.23;;;1.57;;
54929;SDS011;40833;53.238;6.576;2024-01-15T04:01:11;17.83;;;2.17;;
54929;SDS011;40833;53.238;6.576;2024-01-15T04:03:37;16.23;;;1.93;;
54929;SDS011;40833;53.238;6.576;2024-01-15T04:06:03;17.40;;;1.20;;
54929;SDS011;40833;53.238;6.576;2024-01-15T04:08:29;10.17;;;1.20;;
54929;SDS011;40833;53.238;6.576;2024-01-15T04:10:55;21.27;;;1.50;;
54929;SDS011;40833;53.238;6.576;2024-01-15T04:13:20;30.93;;;2.37;;
54929;SDS011;40833;53.238;6.576;2024-01-15T04:15:46;11.93;;;1.03;;
54929;SDS011;40833;53.238;6.576;2024-01-15T04:18:12;9.93;;;1.17;;
54929;SDS011;40833;53.238;6.576;2024-01-15T04:20:38;17.47;;;0.80;;
54929;SDS011;40833;53.238;6.576;2024-01-15T04:23:04;14.23;;;1.80;;
54929;SDS011;40833;53.238;6.576;2024-01-15T04:25:30;16.60;;;1.43;;
54929;SDS011;40833;53.238;6.576;2024-01-15T04:27:56;13.47;;;1.10;;
54929;SDS011;40833;53.238;6.576;2024-01-15T04:30:21;11.03;;;0.83;;
54929;SDS011;40833;53.238;6.576;2024-01-15T04:32:47;16.87;;;1.07;;
54929;SDS011;40833;53.238;6.576;2024-01-15T04:35:13;16.00;;;1.00;;
54929;SDS011;40833;53.238;6.576;2024-01-15T04:37:41;12.63;;;1.23;;
54929;SDS011;40833;53.238;6.576;2024-01-15T04:40:07;7.83;;;1.17;;
54929;SDS011;40833;53.238;6.576;2024-01-15T04:42:33;9.87;;;0.73;;
54929;SDS011;40833;53.238;6.576;2024-01-15T04:44:59;10.33;;;0.90;;
54929;SDS011;40833;53.238;6.576;2024-01-15T04:47:25;8.33;;;0.80;;
54929;SDS011;40833;53.238;6.576;2024-01-15T04:49:50;8.23;;;1.13;;
54929;SDS011;40833;53.238;6.576;2024-01-15T04:52:16;7.93;;;0.20;;
54929;SDS011;40833;53.238;6.576;2024-01-15T04:54:42;7.20;;;1.23;;
54929;SDS011;40833;53.238;6.576;2024-01-15T04:57:08;6.00;;;0.53;;
54929;SDS011;40833;53.238;6.576;2024-01-15T04:59:33;5.27;;;0.27;;
54929;SDS011;40833;53.238;6.576;2024-01-15T05:01:59;9.47;;;0.43;;
54929;SDS011;40833;53.238;6.576;2024-01-15T05:04:25;11.77;;;0.50;;
54929;SDS011;40833;53.238;6.576;2024-01-15T05:06:50;9.23;;;1.60;;
54929;SDS011;40833;53.238;6.576;2024-01-15T05:09:16;6.20;;;0.50;;
54929;SDS011;40833;53.238;6.576;2024-01-15T05:11:43;8.60;;;0.40;;
54929;SDS011;40833;53.238;6.576;2024-01-15T05:14:08;15.60;;;0.70;;
54929;SDS011;40833;53.238;6.576;2024-01-15T05:16:34;10.60;;;0.80;;
54929;SDS011;40833;53.238;6.576;2024-01-15T05:19:03;18.47;;;1.43;;
54929;SDS011;40833;53.238;6.576;2024-01-15T05:21:28;19.23;;;1.67;;
54929;SDS011;40833;53.238;6.576;2024-01-15T05:23:54;10.20;;;1.13;;
54929;SDS011;40833;53.238;6.576;2024-01-15T05:26:19;19.10;;;1.40;;
54929;SDS011;40833;53.238;6.576;2024-01-15T05:28:45;16.50;;;1.87;;
54929;SDS011;40833;53.238;6.576;2024-01-15T05:31:11;14.03;;;1.50;;
54929;SDS011;40833;53.238;6.576;2024-01-15T05:33:37;12.93;;;1.03;;
54929;SDS011;40833;53.238;6.576;2024-01-15T05:36:03;12.87;;;1.30;;
54929;SDS011;40833;53.238;6.576;2024-01-15T05:38:29;11.80;;;1.70;;
54929;SDS011;40833;53.238;6.576;2024-01-15T05:40:54;10.80;;;1.17;;
54929;SDS011;40833;53.238;6.576;2024-01-15T05:43:20;17.43;;;0.87;;
54929;SDS011;40833;53.238;6.576;2024-01-15T05:45:46;20.10;;;1.50;;
54929;SDS011;40833;53.238;6.576;2024-01-15T05:48:11;18.20;;;2.10;;
54929;SDS011;40833;53.238;6.576;2024-01-15T05:50:37;15.33;;;0.87;;
54929;SDS011;40833;53.238;6.576;2024-01-15T05:53:03;15.70;;;2.00;;
54929;SDS011;40833;53.238;6.576;2024-01-15T05:55:29;15.20;;;1.10;;
54929;SDS011;40833;53.238;6.576;2024-01-15T05:57:55;18.37;;;1.67;;
54929;SDS011;40833;53.238;6.576;2024-01-15T06:00:21;13.23;;;0.80;;
54929;SDS011;40833;53.238;6.576;2024-01-15T06:02:47;23.43;;;1.63;;
54929;SDS011;40833;53.238;6.576;2024-01-15T06:05:12;25.83;;;1.97;;
54929;SDS011;40833;53.238;6.576;2024-01-15T06:07:38;18.40;;;2.07;;
54929;SDS011;40833;53.238;6.576;2024-01-15T06:10:04;19.77;;;1.70;;
54929;SDS011;40833;53.238;6.576;2024-01-15T06:12:30;16.93;;;1.53;;
54929;SDS011;40833;53.238;6.576;2024-01-15T06:14:57;18.40;;;1.47;;
54929;SDS011;40833;53.238;6.576;2024-01-15T06:17:22;17.00;;;1.20;;
54929;SDS011;40833;53.238;6.576;2024-01-15T06:19:48;15.47;;;2.73;;
54929;SDS011;40833;53.238;6.576;2024-01-15T06:22:14;20.83;;;1.67;;
54929;SDS011;40833;53.238;6.576;2024-01-15T06:24:40;22.13;;;1.53;;
54929;SDS011;40833;53.238;6.576;2024-01-15T06:27:06;14.87;;;1.50;;
54929;SDS011;40833;53.238;6.576;2024-01-15T06:29:32;17.87;;;1.30;;
54929;SDS011;40833;53.238;6.576;2024-01-15T06:31:58;14.37;;;1.33;;
54929;SDS011;40833;53.238;6.576;2024-01-15T06:34:23;35.93;;;2.57;;
54929;SDS011;40833;53.238;6.576;2024-01-15T06:36:49;21.40;;;1.73;;
54929;SDS011;40833;53.238;6.576;2024-01-15T06:39:15;27.47;;;1.73;;
54929;SDS011;40833;53.238;6.576;2024-01-15T06:41:40;21.67;;;2.17;;
54929;SDS011;40833;53.238;6.576;2024-01-15T06:44:11;16.37;;;1.43;;
54929;SDS011;40833;53.238;6.576;2024-01-15T06:46:43;19.08;;;1.40;;
54929;SDS011;40833;53.238;6.576;2024-01-15T06:49:09;17.40;;;1.67;;
54929;SDS011;40833;53.238;6.576;2024-01-15T06:51:36;26.93;;;2.00;;
54929;SDS011;40833;53.238;6.576;2024-01-15T06:54:02;12.27;;;1.40;;
54929;SDS011;40833;53.238;6.576;2024-01-15T06:56:27;25.87;;;2.27;;
54929;SDS011;40833;53.238;6.576;2024-01-15T06:58:53;18.87;;;2.00;;
54929;SDS011;40833;53.238;6.576;2024-01-15T07:01:19;17.37;;;1.30;;
54929;SDS011;40833;53.238;6.576;2024-01-15T07:03:45;18.87;;;1.60;;
54929;SDS011;40833;53.238;6.576;2024-01-15T07:06:11;22.80;;;1.80;;
54929;SDS011;40833;53.238;6.576;2024-01-15T07:08:37;9.90;;;1.57;;
54929;SDS011;40833;53.238;6.576;2024-01-15T07:11:04;9.60;;;0.70;;
54929;SDS011;40833;53.238;6.576;2024-01-15T07:13:30;10.40;;;0.50;;
54929;SDS011;40833;53.238;6.576;2024-01-15T07:15:56;9.87;;;0.87;;
54929;SDS011;40833;53.238;6.576;2024-01-15T07:18:22;10.27;;;0.90;;
54929;SDS011;40833;53.238;6.576;2024-01-15T07:20:48;7.27;;;0.83;;
54929;SDS011;40833;53.238;6.576;2024-01-15T07:23:15;17.93;;;1.67;;
54929;SDS011;40833;53.238;6.576;2024-01-15T07:25:40;15.00;;;0.90;;
54929;SDS011;40833;53.238;6.576;2024-01-15T07:28:06;10.37;;;0.83;;
54929;SDS011;40833;53.238;6.576;2024-01-15T07:30:32;11.20;;;1.17;;
54929;SDS011;40833;53.238;6.576;2024-01-15T07:32:58;12.53;;;1.00;;
54929;SDS011;40833;53.238;6.576;2024-01-15T07:35:23;17.33;;;0.90;;
54929;SDS011;40833;53.238;6.576;2024-01-15T07:37:49;18.97;;;1.07;;
54929;SDS011;40833;53.238;6.576;2024-01-15T07:40:15;19.77;;;1.10;;
54929;SDS011;40833;53.238;6.576;2024-01-15T07:42:41;14.43;;;1.17;;
54929;SDS011;40833;53.238;6.576;2024-01-15T07:45:08;10.53;;;0.67;;
54929;SDS011;40833;53.238;6.576;2024-01-15T07:47:34;13.73;;;1.37;;
54929;SDS011;40833;53.238;6.576;2024-01-15T07:50:00;13.00;;;1.10;;
54929;SDS011;40833;53.238;6.576;2024-01-15T07:52:26;12.57;;;0.97;;
54929;SDS011;40833;53.238;6.576;2024-01-15T07:54:51;14.87;;;0.70;;
54929;SDS011;40833;53.238;6.576;2024-01-15T07:57:17;11.60;;;0.80;;
54929;SDS011;40833;53.238;6.576;2024-01-15T07:59:43;12.93;;;0.80;;
54929;SDS011;40833;53.238;6.576;2024-01-15T08:02:08;14.00;;;0.87;;
54929;SDS011;40833;53.238;6.576;2024-01-15T08:04:36;15.10;;;1.33;;
54929;SDS011;40833;53.238;6.576;2024-01-15T08:07:03;8.60;;;0.90;;
54929;SDS011;40833;53.238;6.576;2024-01-15T08:09:29;11.77;;;1.63;;
54929;SDS011;40833;53.238;6.576;2024-01-15T08:11:55;14.10;;;1.37;;
54929;SDS011;40833;53.238;6.576;2024-01-15T08:14:21;11.73;;;0.80;;
54929;SDS011;40833;53.238;6.576;2024-01-15T08:16:46;13.80;;;1.27;;
54929;SDS011;40833;53.238;6.576;2024-01-15T08:19:12;15.20;;;1.37;;
54929;SDS011;40833;53.238;6.576;2024-01-15T08:21:39;16.17;;;1.67;;
54929;SDS011;40833;53.238;6.576;2024-01-15T08:24:05;15.17;;;1.20;;
54929;SDS011;40833;53.238;6.576;2024-01-15T08:26:31;9.07;;;1.17;;
54929;SDS011;40833;53.238;6.576;2024-01-15T08:28:57;13.97;;;0.97;;
54929;SDS011;40833;53.238;6.576;2024-01-15T08:31:23;19.27;;;1.77;;
54929;SDS011;40833;53.238;6.576;2024-01-15T08:33:49;16.10;;;1.40;;
54929;SDS011;40833;53.238;6.576;2024-01-15T08:36:14;12.70;;;0.77;;
54929;SDS011;40833;53.238;6.576;2024-01-15T08:38:40;9.97;;;1.27;;
54929;SDS011;40833;53.238;6.576;2024-01-15T08:41:06;15.97;;;1.27;;
54929;SDS011;40833;53.238;6.576;2024-01-15T08:43:33;8.57;;;0.60;;
54929;SDS011;40833;53.238;6.576;2024-01-15T08:45:59;15.17;;;1.67;;
54929;SDS011;40833;53.238;6.576;2024-01-15T08:48:25;14.50;;;1.20;;
54929;SDS011;40833;53.238;6.576;2024-01-15T08:50:55;13.40;;;1.07;;
54929;SDS011;40833;53.238;6.576;2024-01-15T08:53:21;21.20;;;1.63;;
54929;SDS011;40833;53.238;6.576;2024-01-15T08:55:47;11.17;;;0.70;;
54929;SDS011;40833;53.238;6.576;2024-01-15T08:58:13;18.97;;;2.70;;
54929;SDS011;40833;53.238;6.576;2024-01-15T09:00:39;8.27;;;1.33;;
54929;SDS011;40833;53.238;6.576;2024-01-15T09:03:05;11.03;;;0.93;;
54929;SDS011;40833;53.238;6.576;2024-01-15T09:05:31;8.10;;;0.33;;
54929;SDS011;40833;53.238;6.576;2024-01-15T09:07:57;10.37;;;0.60;;
54929;SDS011;40833;53.238;6.576;2024-01-15T09:10:22;7.90;;;1.07;;
54929;SDS011;40833;53.238;6.576;2024-01-15T09:12:49;9.10;;;0.50;;
54929;SDS011;40833;53.238;6.576;2024-01-15T09:15:15;9.27;;;1.00;;
54929;SDS011;40833;53.238;6.576;2024-01-15T09:17:41;13.33;;;0.43;;
54929;SDS011;40833;53.238;6.576;2024-01-15T09:20:07;13.17;;;1.30;;
54929;SDS011;40833;53.238;6.576;2024-01-15T09:22:33;12.50;;;0.87;;
54929;SDS011;40833;53.238;6.576;2024-01-15T09:25:00;13.47;;;0.60;;
54929;SDS011;40833;53.238;6.576;2024-01-15T09:27:25;9.47;;;1.03;;
54929;SDS011;40833;53.238;6.576;2024-01-15T09:29:52;8.97;;;0.90;;
54929;SDS011;40833;53.238;6.576;2024-01-15T09:32:17;12.93;;;0.87;;
54929;SDS011;40833;53.238;6.576;2024-01-15T09:34:44;5.77;;;0.63;;
54929;SDS011;40833;53.238;6.576;2024-01-15T09:37:11;9.73;;;1.50;;
54929;SDS011;40833;53.238;6.576;2024-01-15T09:39:37;6.93;;;0.70;;
54929;SDS011;40833;53.238;6.576;2024-01-15T09:42:03;21.80;;;1.50;;
54929;SDS011;40833;53.238;6.576;2024-01-15T09:44:29;7.53;;;0.90;;
54929;SDS011;40833;53.238;6.576;2024-01-15T09:46:56;13.73;;;0.90;;
54929;SDS011;40833;53.238;6.576;2024-01-15T09:49:23;10.80;;;0.40;;
54929;SDS011;40833;53.238;6.576;2024-01-15T09:51:48;14.10;;;0.80;;
54929;SDS011;40833;53.238;6.576;2024-01-15T09:54:15;8.90;;;1.00;;
54929;SDS011;40833;53.238;6.576;2024-01-15T09:56:45;16.53;;;3.10;;
54929;SDS011;40833;53.238;6.576;2024-01-15T09:59:16;16.67;;;1.05;;
54929;SDS011;40833;53.238;6.576;2024-01-15T10:01:43;8.47;;;0.70;;
54929;SDS011;40833;53.238;6.576;2024-01-15T10:04:10;6.57;;;0.90;;
54929;SDS011;40833;53.238;6.576;2024-01-15T10:06:38;11.33;;;1.60;;
54929;SDS011;40833;53.238;6.576;2024-01-15T10:09:06;13.70;;;1.67;;
54929;SDS011;40833;53.238;6.576;2024-01-15T10:11:33;20.53;;;1.43;;
54929;SDS011;40833;53.238;6.576;2024-01-15T10:13:58;12.17;;;1.63;;
54929;SDS011;40833;53.238;6.576;2024-01-15T10:16:25;15.53;;;1.73;;
54929;SDS011;40833;53.238;6.576;2024-01-15T10:18:51;18.27;;;1.70;;
54929;SDS011;40833;53.238;6.576;2024-01-15T10:21:17;16.60;;;1.30;;
54929;SDS011;40833;53.238;6.576;2024-01-15T10:23:43;11.80;;;1.00;;
54929;SDS011;40833;53.238;6.576;2024-01-15T10:26:09;17.20;;;2.03;;
54929;SDS011;40833;53.238;6.576;2024-01-15T10:28:37;6.97;;;0.40;;
54929;SDS011;40833;53.238;6.576;2024-01-15T10:31:02;22.07;;;1.43;;
54929;SDS011;40833;53.238;6.576;2024-01-15T10:33:29;17.13;;;1.57;;
54929;SDS011;40833;53.238;6.576;2024-01-15T10:35:59;13.23;;;0.80;;
54929;SDS011;40833;53.238;6.576;2024-01-15T10:38:26;14.60;;;0.87;;
54929;SDS011;40833;53.238;6.576;2024-01-15T10:40:52;16.00;;;2.00;;
54929;SDS011;40833;53.238;6.576;2024-01-15T10:43:18;19.77;;;0.87;;
54929;SDS011;40833;53.238;6.576;2024-01-15T10:45:44;15.57;;;0.97;;
54929;SDS011;40833;53.238;6.576;2024-01-15T10:48:10;8.13;;;0.80;;
54929;SDS011;40833;53.238;6.576;2024-01-15T10:50:37;6.93;;;0.87;;
54929;SDS011;40833;53.238;6.576;2024-01-15T10:53:03;3.53;;;0.10;;
54929;SDS011;40833;53.238;6.576;2024-01-15T10:55:29;5.33;;;0.20;;
54929;SDS011;40833;53.238;6.576;2024-01-15T10:57:57;4.63;;;0.20;;
54929;SDS011;40833;53.238;6.576;2024-01-15T11:00:24;3.23;;;0.23;;
54929;SDS011;40833;53.238;6.576;2024-01-15T11:02:50;3.43;;;0.10;;
54929;SDS011;40833;53.238;6.576;2024-01-15T11:05:16;3.23;;;0.27;;
54929;SDS011;40833;53.238;6.576;2024-01-15T11:07:43;3.00;;;0.07;;
54929;SDS011;40833;53.238;6.576;2024-01-15T11:10:37;2.50;;;0.23;;
54929;SDS011;40833;53.238;6.576;2024-01-15T11:13:39;7.27;;;0.47;;
54929;SDS011;40833;53.238;6.576;2024-01-15T11:16:06;4.67;;;0.30;;
54929;SDS011;40833;53.238;6.576;2024-01-15T11:18:37;5.83;;;1.07;;
54929;SDS011;40833;53.238;6.576;2024-01-15T11:23:44;7.50;;;0.30;;
54929;SDS011;40833;53.238;6.576;2024-01-15T11:26:26;7.20;;;0.20;;
54929;SDS011;40833;53.238;6.576;2024-01-15T11:28:53;6.53;;;0.30;;
54929;SDS011;40833;53.238;6.576;2024-01-15T11:31:20;2.40;;;0.10;;
54929;SDS011;40833;53.238;6.576;2024-01-15T11:33:49;0.83;;;0.10;;
54929;SDS011;40833;53.238;6.576;2024-01-15T11:36:15;0.37;;;0.00;;
54929;SDS011;40833;53.238;6.576;2024-01-15T11:38:41;2.87;;;0.00;;
54929;SDS011;40833;53.238;6.576;2024-01-15T11:41:13;1.07;;;0.10;;
54929;SDS011;40833;53.238;6.576;2024-01-15T11:43:41;4.23;;;0.10;;
54929;SDS011;40833;53.238;6.576;2024-01-15T11:46:10;6.30;;;0.20;;
54929;SDS011;40833;53.238;6.576;2024-01-15T11:48:43;2.37;;;0.10;;
54929;SDS011;40833;53.238;6.576;2024-01-15T11:51:12;9.07;;;0.77;;
54929;SDS011;40833;53.238;6.576;2024-01-15T11:53:43;1.93;;;0.40;;
54929;SDS011;40833;53.238;6.576;2024-01-15T11:56:19;3.93;;;0.20;;
54929;SDS011;40833;53.238;6.576;2024-01-15T11:58:48;5.70;;;0.50;;
54929;SDS011;40833;53.238;6.576;2024-01-15T12:01:15;1.90;;;0.30;;
54929;SDS011;40833;53.238;6.576;2024-01-15T12:03:42;6.80;;;0.47;;
54929;SDS011;40833;53.238;6.576;2024-01-15T12:06:09;7.07;;;0.93;;
54929;SDS011;40833;53.238;6.576;2024-01-15T12:08:36;6.90;;;0.30;;
54929;SDS011;40833;53.238;6.576;2024-01-15T12:11:05;5.83;;;0.80;;
54929;SDS011;40833;53.238;6.576;2024-01-15T12:13:35;6.53;;;0.53;;
54929;SDS011;40833;53.238;6.576;2024-01-15T12:16:01;8.30;;;0.43;;
54929;SDS011;40833;53.238;6.576;2024-01-15T12:18:30;14.90;;;0.97;;
54929;SDS011;40833;53.238;6.576;2024-01-15T12:20:56;8.77;;;0.80;;
54929;SDS011;40833;53.238;6.576;2024-01-15T12:23:24;9.07;;;0.63;;
54929;SDS011;40833;53.238;6.576;2024-01-15T12:25:49;7.73;;;0.53;;
54929;SDS011;40833;53.238;6.576;2024-01-15T12:28:15;12.93;;;1.10;;
54929;SDS011;40833;53.238;6.576;2024-01-15T12:30:41;13.07;;;0.50;;
54929;SDS011;40833;53.238;6.576;2024-01-15T12:33:07;5.87;;;0.47;;
54929;SDS011;40833;53.238;6.576;2024-01-15T12:35:33;6.07;;;0.53;;
54929;SDS011;40833;53.238;6.576;2024-01-15T12:38:00;10.77;;;0.70;;
54929;SDS011;40833;53.238;6.576;2024-01-15T12:40:30;6.07;;;0.40;;
54929;SDS011;40833;53.238;6.576;2024-01-15T12:42:57;9.93;;;0.43;;
54929;SDS011;40833;53.238;6.576;2024-01-15T12:45:23;8.33;;;0.70;;
54929;SDS011;40833;53.238;6.576;2024-01-15T12:47:49;10.20;;;0.43;;
54929;SDS011;40833;53.238;6.576;2024-01-15T12:50:16;12.57;;;0.80;;
54929;SDS011;40833;53.238;6.576;2024-01-15T12:52:42;11.83;;;0.77;;
54929;SDS011;40833;53.238;6.576;2024-01-15T12:55:08;13.43;;;0.53;;
54929;SDS011;40833;53.238;6.576;2024-01-15T12:57:35;11.60;;;0.87;;
54929;SDS011;40833;53.238;6.576;2024-01-15T13:00:02;15.07;;;0.87;;
54929;SDS011;40833;53.238;6.576;2024-01-15T13:02:32;10.57;;;1.23;;
54929;SDS011;40833;53.238;6.576;2024-01-15T13:04:59;8.70;;;1.07;;
54929;SDS011;40833;53.238;6.576;2024-01-15T13:07:25;9.40;;;1.20;;
54929;SDS011;40833;53.238;6.576;2024-01-15T13:09:51;12.63;;;0.80;;
54929;SDS011;40833;53.238;6.576;2024-01-15T13:12:19;12.83;;;0.60;;
54929;SDS011;40833;53.238;6.576;2024-01-15T13:14:45;9.97;;;1.80;;
54929;SDS011;40833;53.238;6.576;2024-01-15T13:17:12;9.00;;;1.53;;
54929;SDS011;40833;53.238;6.576;2024-01-15T13:19:39;8.03;;;0.87;;
54929;SDS011;40833;53.238;6.576;2024-01-15T13:22:05;13.57;;;2.00;;
54929;SDS011;40833;53.238;6.576;2024-01-15T13:24:34;11.37;;;2.00;;
54929;SDS011;40833;53.238;6.576;2024-01-15T13:27:01;18.17;;;1.10;;
54929;SDS011;40833;53.238;6.576;2024-01-15T13:29:29;17.37;;;1.47;;
54929;SDS011;40833;53.238;6.576;2024-01-15T13:31:55;7.07;;;0.87;;
54929;SDS011;40833;53.238;6.576;2024-01-15T13:34:21;11.40;;;0.80;;
54929;SDS011;40833;53.238;6.576;2024-01-15T13:36:46;16.53;;;1.53;;
54929;SDS011;40833;53.238;6.576;2024-01-15T13:39:12;16.40;;;1.07;;
54929;SDS011;40833;53.238;6.576;2024-01-15T13:41:38;18.93;;;1.50;;
54929;SDS011;40833;53.238;6.576;2024-01-15T13:44:04;14.30;;;1.00;;
54929;SDS011;40833;53.238;6.576;2024-01-15T13:46:30;14.10;;;0.97;;
54929;SDS011;40833;53.238;6.576;2024-01-15T13:48:56;9.70;;;0.60;;
54929;SDS011;40833;53.238;6.576;2024-01-15T13:51:21;7.80;;;0.30;;
54929;SDS011;40833;53.238;6.576;2024-01-15T13:53:47;10.80;;;1.07;;
54929;SDS011;40833;53.238;6.576;2024-01-15T13:56:13;8.33;;;0.30;;
54929;SDS011;40833;53.238;6.576;2024-01-15T13:58:40;7.43;;;0.60;;
54929;SDS011;40833;53.238;6.576;2024-01-15T14:01:06;9.90;;;0.60;;
54929;SDS011;40833;53.238;6.576;2024-01-15T14:03:34;12.23;;;1.40;;
54929;SDS011;40833;53.238;6.576;2024-01-15T14:06:00;10.60;;;1.07;;
54929;SDS011;40833;53.238;6.576;2024-01-15T14:08:28;15.30;;;1.70;;
54929;SDS011;40833;53.238;6.576;2024-01-15T14:10:54;15.07;;;1.00;;
54929;SDS011;40833;53.238;6.576;2024-01-15T14:13:22;8.93;;;0.43;;
54929;SDS011;40833;53.238;6.576;2024-01-15T14:15:47;14.33;;;1.30;;
54929;SDS011;40833;53.238;6.576;2024-01-15T14:18:15;10.77;;;0.80;;
54929;SDS011;40833;53.238;6.576;2024-01-15T14:20:42;13.73;;;1.03;;
54929;SDS011;40833;53.238;6.576;2024-01-15T14:23:08;8.33;;;0.53;;
54929;SDS011;40833;53.238;6.576;2024-01-15T14:25:34;7.13;;;0.50;;
54929;SDS011;40833;53.238;6.576;2024-01-15T14:28:00;8.37;;;0.50;;
54929;SDS011;40833;53.238;6.576;2024-01-15T14:30:25;7.60;;;0.67;;
54929;SDS011;40833;53.238;6.576;2024-01-15T14:32:51;2.23;;;0.53;;
54929;SDS011;40833;53.238;6.576;2024-01-15T14:35:16;8.27;;;0.60;;